Flight Track Log - Related Links

Times and Time Zones

All times are in EDT time to prevent confusion due to time zone crossing. See the EMD21 flight status page for this flight to view local times or setup timezone preferences in your user account.

Time Position Orientation Groundspeed Altitude Reporting Facility
EDT Latitude Longitude Course Direction KTS MPH feet Rate Location/Type
Sun 11:48:20 PM 32.8500 -96.8167 23° Northeast 117 135 1,200  Level Dallas / Fort Worth TRACON
Sun 11:49:26 PM 32.8833 -96.8000 23° Northeast 163 188 2,500 1,286 Climbing Dallas / Fort Worth TRACON
Sun 11:50:26 PM 32.9333 -96.7667 29° Northeast 170 196 3,900 1,250 Climbing Dallas / Fort Worth TRACON
Sun 11:51:26 PM 32.9667 -96.7667 360° North 181 208 5,000 1,100 Climbing Dallas / Fort Worth TRACON
Sun 11:52:26 PM 33.0333 -96.7667 360° North 189 217 6,100 1,100 Climbing Dallas / Fort Worth TRACON
Sun 11:53:26 PM 33.0833 -96.7833 344° North 175 201 7,200 852 Climbing Dallas / Fort Worth TRACON
Sun 11:55:01 PM 33.1575 -96.7981 351° North 208 239 8,300 701 Climbing Fort Worth Center
Sun 11:56:00 PM 33.2097 -96.8100 349° North 195 224 9,000 353 Climbing Fort Worth Center
Sun 11:57:00 PM 33.2683 -96.8222 350° North 200 230 9,000  Level Fort Worth Center
Sun 11:58:00 PM 33.3331 -96.8342 351° North 223 257 9,000  Level Fort Worth Center
Sun 11:59:00 PM 33.3958 -96.8461 351° North 229 264 9,000  Level Fort Worth Center
Mon 12:00:01 AM 33.4606 -96.8556 353° North 229 264 9,000  Level Fort Worth Center
Mon 12:01:00 AM 33.5125 -96.8131 34° Northeast 222 255 9,000  Level Fort Worth Center
Mon 12:02:00 AM 33.5750 -96.7903 17° North 227 261 9,000  Level Fort Worth Center
Mon 12:03:00 AM 33.6375 -96.7797 North 227 261 9,000  Level Fort Worth Center
Mon 12:04:00 AM 33.7022 -96.7619 13° North 227 261 9,000  Level Fort Worth Center
Mon 12:05:00 AM 33.7647 -96.7489 10° North 227 261 9,000  Level Fort Worth Center
Mon 12:06:00 AM 33.8250 -96.7358 10° North 222 255 9,000  Level Fort Worth Center
Mon 12:07:00 AM 33.8814 -96.7231 11° North 222 255 9,000  Level Fort Worth Center
Mon 12:08:00 AM 33.9419 -96.7100 10° North 222 255 9,000  Level Fort Worth Center
Mon 12:09:00 AM 34.0064 -96.6944 11° North 222 255 9,000  Level Fort Worth Center
Mon 12:10:00 AM 34.0711 -96.6814 North 222 255 9,000  Level Fort Worth Center
Mon 12:11:00 AM 34.1397 -96.6683 North 222 255 9,000  Level Fort Worth Center
Mon 12:12:00 AM 34.2022 -96.6528 12° North 222 255 9,000 -100 Level Fort Worth Center
Mon 12:13:00 AM 34.2650 -96.6419 North 222 255 8,800 -300 Descending Fort Worth Center
Mon 12:14:00 AM 34.3317 -96.6239 13° North 222 255 8,400 -400 Descending Fort Worth Center
Mon 12:15:00 AM 34.3961 -96.6131 North 227 261 8,000 -600 Descending Fort Worth Center
Mon 12:16:00 AM 34.4628 -96.5950 13° North 232 267 7,200 -500 Descending Fort Worth Center
Mon 12:17:00 AM 34.5294 -96.5792 11° North 238 274 7,000 -100 Descending Fort Worth Center
Mon 12:18:00 AM 34.5942 -96.5658 10° North 238 274 7,000  Level Fort Worth Center
Mon 12:19:00 AM 34.6564 -96.5475 14° North 238 274 7,000  Level Fort Worth Center
Mon 12:20:00 AM 34.7189 -96.5344 10° North 238 274 7,000 -100 Level Fort Worth Center
Mon 12:21:00 AM 34.7561 -96.4708 55° Northeast 217 250 6,800 -400 Descending Fort Worth Center
Mon 12:22:00 AM 34.7617 -96.3900 85° East 219 252 6,200 -700 Descending Fort Worth Center
Mon 12:23:00 AM 34.7842 -96.3139 70° East 230 265 5,400 -750 Descending Fort Worth Center
Mon 12:24:00 AM 34.7936 -96.2328 82° East 230 265 4,700 -600 Descending Fort Worth Center
Mon 12:25:00 AM 34.8139 -96.1592 71° East 235 270 4,200 -500 Descending Fort Worth Center

Login

Don't have an account? Register now (free) for customized features, flight alerts, and more!